Westminster, Texas
Current Conditions -  °F | °C
As of 5:53 AM on Monday 24 Nov 2014 (Local Time) from KTKI Reporting Station
Clear Clear  
Wind Chill: 38°   Ceiling: Unl
Heat Index: 43°   Visibility: 10mi
Dew Point: 35°   Wind: 9mph
Humidity: 74%   Direction: 280°W
Pressure: 29.95"   Gusts: NA
Location:  33.36°N, 96.46°W
Report Text: KTKI 241153Z AUTO 28008KT 10SM CLR 06/02 A2995 RMK AO2 SLP148 T00610017 10089 20061 53018
Loading
Personal Weather Stations






























Interactive Weather Map New forecast layout! Learn more

10-Day Weather Forecast

Advertisements
Track Severe Weather on mobile